Flight Track Log - Related Links

Times and Time Zones

All times are in EDT time to prevent confusion due to time zone crossing. See the JBU661 flight status page for this flight to view local times or setup timezone preferences in your user account.

Time Position Orientation Groundspeed Altitude Reporting Facility
EDT Latitude Longitude Course Direction KTS MPH feet Rate Location/Type
Tue 08:35:47 AM 40.6300 -73.7790 37° Northeast 120 138  Level FlightAware ADS-B
Tue 08:36:11 AM 40.6460 -73.7670 30° Northeast 177 204 200 1,500 Climbing FlightAware ADS-B
Tue 08:36:31 AM 40.6600 -73.7540 35° Northeast 181 208 1,100 2,357 Climbing FlightAware ADS-B
Tue 08:36:39 AM 40.6640 -73.7450 60° Northeast 195 224 1,300 1,500 Climbing FlightAware ADS-B
Tue 08:36:43 AM 40.6650 -73.7400 75° East 204 235 1,400 1,500 Climbing FlightAware ADS-B
Tue 08:36:51 AM 40.6660 -73.7320 81° East 210 242 1,600 1,200 Climbing FlightAware ADS-B
Tue 08:37:13 AM 40.6660 -73.7010 90° East 238 274 2,000 1,393 Climbing FlightAware ADS-B
Tue 08:37:47 AM 40.6490 -73.6530 115° Southeast 278 320 2,900 1,857 Climbing FlightAware ADS-B
Tue 08:37:55 AM 40.6410 -73.6470 150° Southeast 280 322 3,300 3,643 Climbing FlightAware ADS-B
Tue 08:38:15 AM 40.6170 -73.6310 153° Southeast 275 316 4,600 3,409 Climbing FlightAware ADS-B
Tue 08:38:39 AM 40.5890 -73.6150 157° South 277 319 5,800 2,727 Climbing FlightAware ADS-B
Tue 08:38:59 AM 40.5670 -73.6010 154° Southeast 285 328 6,600 2,595 Climbing FlightAware ADS-B
Tue 08:39:16 AM 40.5453 -73.5847 150° Southeast 297 342 7,400 2,857 Climbing FlightAware ADS-B
Tue 08:39:20 AM 40.5408 -73.5792 137° Southeast 299 344 7,600 2,667 Climbing FlightAware ADS-B
Tue 08:39:25 AM 40.5363 -73.5729 133° Southeast 299 344 7,800 2,500 Climbing FlightAware ADS-B
Tue 08:39:32 AM 40.5301 -73.5633 130° Southeast 301 346 8,100 2,400 Climbing FlightAware ADS-B
Tue 08:39:50 AM 40.5138 -73.5370 129° Southeast 310 357 8,800 2,294 Climbing FlightAware ADS-B
Tue 08:40:06 AM 40.4987 -73.5140 131° Southeast 314 361 9,400 2,170 Climbing FlightAware ADS-B
Tue 08:40:37 AM 40.4693 -73.4694 131° Southeast 326 375 10,500 1,500 Climbing FlightAware ADS-B
Tue 08:41:10 AM 40.4351 -73.4163 130° Southeast 358 412 11,000 971 Climbing FlightAware ADS-B
Tue 08:41:45 AM 40.3963 -73.3546 130° Southeast 389 448 11,600 794 Climbing FlightAware ADS-B
Tue 08:42:18 AM 40.3590 -73.2969 130° Southeast 388 447 11,900 1,219 Climbing FlightAware ADS-B
Tue 08:42:49 AM 40.3156 -73.2455 138° Southeast 392 451 12,900 1,800 Climbing FlightAware ADS-B
Tue 08:43:28 AM 40.2628 -73.1824 138° Southeast 405 466 14,000 1,865 Climbing FlightAware ADS-B
Tue 08:44:03 AM 40.2141 -73.1238 137° Southeast 406 467 15,200 1,840 Climbing FlightAware ADS-B
Tue 08:44:43 AM 40.1580 -73.0566 138° Southeast 415 478 16,300 1,667 Climbing FlightAware ADS-B
Tue 08:45:15 AM 40.1120 -73.0020 138° Southeast 424 488 17,200 1,545 Climbing FlightAware ADS-B
Tue 08:45:49 AM 40.0630 -72.9440 138° Southeast 432 497 18,000 1,647 Climbing FlightAware ADS-B
Tue 08:46:06 AM 40.0363 -72.9115 137° Southeast 432 497 18,600 1,612 Climbing FlightAware ADS-B
Tue 08:46:56 AM 39.9617 -72.8229 138° Southeast 444 511 19,800 1,610 Climbing FlightAware ADS-B
Tue 08:47:28 AM 39.9126 -72.7646 138° Southeast 445 512 20,800 1,437 Climbing FlightAware ADS-B
Tue 08:48:07 AM 39.8540 -72.6960 138° Southeast 455 524 21,500 684 Climbing FlightAware ADS-B
Tue 08:48:47 AM 39.7970 -72.6270 137° Southeast 459 528 21,700 158 Climbing FlightAware ADS-B
Tue 08:49:23 AM 39.7490 -72.5690 137° Southeast 459 528 21,700 1,412 Level FlightAware ADS-B
Tue 08:50:12 AM 39.6690 -72.4770 138° Southeast 459 528 23,700 2,615 Climbing FlightAware ADS-B
Tue 08:50:41 AM 39.6100 -72.4080 138° Southeast 459 528 25,100 2,375 Climbing FlightAware ADS-B
Tue 08:51:00 AM 39.5770 -72.3699 138° Southeast 465 535 25,600 1,294 Climbing FlightAware ADS-B
Tue 08:51:32 AM 39.5261 -72.3106 138° Southeast 468 539 26,200 985 Climbing FlightAware ADS-B
Tue 08:52:07 AM 39.4692 -72.2444 138° Southeast 475 547 26,700 563 Climbing FlightAware ADS-B
Tue 08:53:08 AM 39.3800 -72.1390 138° Southeast 459 528 27,100 224 Climbing FlightAware ADS-B
Tue 08:53:54 AM 39.3190 -72.0660 137° Southeast 459 528 27,100 1,047 Level FlightAware ADS-B
Tue 08:56:37 AM 39.0141 -71.7202 138° Southeast 30,700 1,337 Climbing FlightAware ADS-B
Tue 08:56:40 AM 39.0080 -71.7132 138° Southeast 494 568 30,800 960 Climbing FlightAware ADS-B
Tue 08:57:27 AM 38.9287 -71.6227 138° Southeast 494 568 31,500 975 Climbing FlightAware ADS-B
Tue 08:58:00 AM 38.8713 -71.5574 138° Southeast 492 566 32,100 1,217 Climbing FlightAware ADS-B
Tue 08:58:36 AM 38.8100 -71.4880 139° Southeast 490 564 32,900 1,216 Climbing FlightAware ADS-B
Tue 08:59:14 AM 38.7478 -71.4175 139° Southeast 480 552 33,600 835 Climbing FlightAware ADS-B
Tue 08:59:55 AM 38.6850 -71.3528 139° Southeast 479 551 34,000 832 Climbing New York Center
Tue 09:00:55 AM 38.5894 -71.2403 137° Southeast 474 545 35,000 504 Climbing New York Center
Tue 09:01:54 AM 38.4939 -71.1364 140° Southeast 464 534 35,000  Level New York Center
Tue 09:02:55 AM 38.3983 -71.0297 139° Southeast 459 528 35,000 -50 Level New York Center
Tue 09:03:55 AM 38.3006 -70.9233 139° Southeast 454 522 34,900 -50 Descending New York Center
Tue 09:04:56 AM 38.2047 -70.8200 140° Southeast 454 522 34,900 50 Level New York Center
Tue 09:05:54 AM 38.1089 -70.7144 139° Southeast 454 522 35,000 50 Climbing New York Center
Tue 09:06:55 AM 38.0131 -70.6064 138° Southeast 454 522 35,000  Level New York Center
Tue 09:07:56 AM 37.9044 -70.5458 156° South 448 516 35,000 -50 Level New York Center
Tue 09:08:56 AM 37.7875 -70.5122 167° South 433 498 34,900  Descending New York Center
Tue 09:09:56 AM 37.6789 -70.4389 152° Southeast 433 498 35,000 51 Climbing New York Center
Tue 09:10:54 AM 37.5744 -70.3711 153° Southeast 433 498 35,000 -50 Level New York Center
Tue 09:11:56 AM 37.4636 -70.3064 155° Southeast 428 493 34,900  Descending New York Center
Tue 09:12:54 AM 37.3569 -70.2442 155° Southeast 428 493 35,000 Climbing New York Center
Tue 09:14:00 AM 37.2437 -70.1603 149° Southeast  Level FlightAware Approximate
Tue 09:21:00 AM 36.5057 -69.6639 154° Southeast  Level FlightAware Approximate
Tue 09:22:00 AM 36.3982 -69.5991 154° Southeast  Level FlightAware Approximate
Tue 09:23:00 AM 36.2907 -69.5344 154° Southeast  Level FlightAware Approximate
Tue 09:24:00 AM 36.1831 -69.4698 154° Southeast  Level FlightAware Approximate
Tue 09:25:00 AM 36.0857 -69.3856 141° Southeast  Level FlightAware Approximate
Tue 09:26:00 AM 35.9928 -69.2928 141° Southeast  Level FlightAware Approximate
Tue 09:26:15 AM 36.1667 -69.4500 143° Southeast 435 501 35,000  Level New York Oceanic (ODAPS)
Tue 09:27:00 AM 35.8966 -69.2052 144° Southeast  Level FlightAware Approximate
Tue 09:28:00 AM 35.8004 -69.1178 142° Southeast  Level FlightAware Approximate
Tue 09:29:00 AM 35.7059 -69.0278 142° Southeast  Level FlightAware Approximate
Tue 09:30:00 AM 35.6114 -68.9379 142° Southeast  Level FlightAware Approximate
Tue 09:31:00 AM 35.5167 -68.8483 142° Southeast  Level FlightAware Approximate
Tue 09:32:00 AM 35.3955 -68.7278 143° Southeast 435 501 35,000  Level FlightAware Transoceanic
Tue 09:33:00 AM 35.2988 -68.6385 143° Southeast 435 501 35,000  Level FlightAware Transoceanic
Tue 09:34:00 AM 35.2020 -68.5495 143° Southeast 435 501 35,000  Level FlightAware Transoceanic
Tue 09:35:00 AM 35.1051 -68.4606 143° Southeast 435 501 35,000  Level FlightAware Transoceanic
Tue 09:36:00 AM 35.0083 -68.3719 143° Southeast 435 501 35,000  Level FlightAware Transoceanic
Tue 09:37:00 AM 34.9113 -68.2835 143° Southeast 435 501 35,000  Level FlightAware Transoceanic
Tue 09:38:00 AM 34.8143 -68.1953 143° Southeast 435 501 35,000  Level FlightAware Transoceanic
Tue 09:39:00 AM 34.7172 -68.1072 143° Southeast 435 501 35,000  Level FlightAware Transoceanic
Tue 09:40:00 AM 34.6200 -68.0194 143° Southeast 435 501 35,000  Level FlightAware Transoceanic
Tue 09:41:00 AM 34.5228 -67.9318 143° Southeast 435 501 35,000  Level FlightAware Transoceanic
Tue 09:42:00 AM 34.4255 -67.8444 143° Southeast 435 501 35,000  Level FlightAware Transoceanic
Tue 09:43:00 AM 34.3282 -67.7571 144° Southeast 435 501 35,000  Level FlightAware Transoceanic
Tue 09:44:00 AM 34.2308 -67.6701 144° Southeast 435 501 35,000  Level FlightAware Transoceanic
Tue 09:45:00 AM 34.1333 -67.5833 170° South 435 501 35,000  Level FlightAware Transoceanic
Tue 09:46:00 AM 34.0094 -67.5567 170° South 435 501 35,000  Level FlightAware Transoceanic
Tue 09:47:00 AM 33.8855 -67.5301 170° South 435 501 35,000  Level FlightAware Transoceanic
Tue 09:47:23 AM 34.1333 -67.5833 170° South 440 506 35,000  Level New York Oceanic (ODAPS)
Tue 09:48:00 AM 33.7615 -67.5035 170° South 435 501 35,000  Level FlightAware Transoceanic
Tue 09:49:00 AM 33.6376 -67.4771 170° South 435 501 35,000  Level FlightAware Transoceanic
Tue 09:50:00 AM 33.5136 -67.4507 170° South 435 501 35,000  Level FlightAware Transoceanic
Tue 09:51:00 AM 33.3897 -67.4244 170° South 435 501 35,000  Level FlightAware Transoceanic
Tue 09:52:00 AM 33.2657 -67.3982 170° South 435 501 35,000  Level FlightAware Transoceanic
Tue 09:53:00 AM 33.0496 -67.3527 170° South 440 506 35,000  Level FlightAware Transoceanic
Tue 09:54:00 AM 32.9292 -67.3274 170° South 440 506 35,000  Level FlightAware Transoceanic
Tue 09:55:00 AM 32.8087 -67.3022 170° South 440 506 35,000  Level FlightAware Transoceanic
Tue 09:56:00 AM 32.6883 -67.2771 170° South 440 506 35,000  Level FlightAware Transoceanic
Tue 09:57:00 AM 32.5678 -67.2520 170° South 440 506 35,000  Level FlightAware Transoceanic
Tue 09:58:00 AM 32.4474 -67.2270 170° South 440 506 35,000  Level FlightAware Transoceanic
Tue 09:59:00 AM 32.3269 -67.2021 170° South 440 506 35,000  Level FlightAware Transoceanic
Tue 10:00:00 AM 32.2065 -67.1772 170° South 440 506 35,000  Level FlightAware Transoceanic
Tue 10:01:00 AM 32.0860 -67.1524 170° South 440 506 35,000  Level FlightAware Transoceanic
Tue 10:02:00 AM 31.9655 -67.1277 170° South 440 506 35,000  Level FlightAware Transoceanic
Tue 10:03:00 AM 31.8450 -67.1030 170° South 440 506 35,000  Level FlightAware Transoceanic
Tue 10:04:00 AM 31.7245 -67.0784 170° South 440 506 35,000  Level FlightAware Transoceanic
Tue 10:05:00 AM 31.6040 -67.0538 170° South 440 506 35,000  Level FlightAware Transoceanic
Tue 10:06:00 AM 31.4835 -67.0294 170° South 440 506 35,000  Level FlightAware Transoceanic
Tue 10:07:00 AM 31.3630 -67.0049 170° South 440 506 35,000  Level FlightAware Transoceanic
Tue 10:08:00 AM 31.2425 -66.9806 170° South 440 506 35,000  Level FlightAware Transoceanic
Tue 10:09:00 AM 31.1220 -66.9563 170° South 440 506 35,000  Level FlightAware Transoceanic
Tue 10:10:00 AM 31.0015 -66.9321 170° South 440 506 35,000  Level FlightAware Transoceanic
Tue 10:11:00 AM 30.8810 -66.9079 170° South 440 506 35,000  Level FlightAware Transoceanic
Tue 10:12:00 AM 30.7605 -66.8838 170° South 440 506 35,000  Level FlightAware Transoceanic
Tue 10:13:00 AM 30.6399 -66.8597 170° South 440 506 35,000  Level FlightAware Transoceanic
Tue 10:14:00 AM 30.5194 -66.8357 170° South 440 506 35,000  Level FlightAware Transoceanic
Tue 10:15:00 AM 30.3989 -66.8118 170° South 440 506 35,000  Level FlightAware Transoceanic
Tue 10:16:00 AM 30.2783 -66.7879 170° South 440 506 35,000  Level FlightAware Transoceanic
Tue 10:17:00 AM 30.1578 -66.7641 170° South 440 506 35,000  Level FlightAware Transoceanic
Tue 10:18:00 AM 30.0372 -66.7404 170° South 440 506 35,000  Level FlightAware Transoceanic
Tue 10:19:00 AM 29.9167 -66.7167 170° South 440 506 35,000  Level FlightAware Transoceanic
Tue 10:20:00 AM 29.7934 -66.6926 170° South 440 506 35,000  Level FlightAware Transoceanic
Tue 10:20:13 AM 29.9167 -66.7167 170° South 439 505 35,000  Level New York Oceanic (ODAPS)
Tue 10:21:00 AM 29.6701 -66.6685 170° South 440 506 35,000  Level FlightAware Transoceanic
Tue 10:22:00 AM 29.5468 -66.6445 170° South 440 506 35,000  Level FlightAware Transoceanic
Tue 10:23:00 AM 29.4234 -66.6206 170° South 440 506 35,000  Level FlightAware Transoceanic
Tue 10:24:00 AM 29.3001 -66.5968 170° South 440 506 35,000  Level FlightAware Transoceanic
Tue 10:25:00 AM 29.1768 -66.5730 170° South 440 506 35,000  Level FlightAware Transoceanic
Tue 10:26:00 AM 28.9488 -66.5291 170° South 439 505 35,000  Level FlightAware Transoceanic
Tue 10:27:00 AM 28.8278 -66.5059 170° South 439 505 35,000  Level FlightAware Transoceanic
Tue 10:28:00 AM 28.7068 -66.4827 170° South 439 505 35,000  Level FlightAware Transoceanic
Tue 10:29:00 AM 28.5857 -66.4597 170° South 439 505 35,000  Level FlightAware Transoceanic
Tue 10:30:00 AM 28.4647 -66.4366 171° South 439 505 35,000  Level FlightAware Transoceanic
Tue 10:31:00 AM 28.3437 -66.4136 171° South 439 505 35,000  Level FlightAware Transoceanic
Tue 10:32:00 AM 28.2227 -66.3907 171° South 439 505 35,000  Level FlightAware Transoceanic
Tue 10:33:00 AM 28.1017 -66.3678 171° South 439 505 35,000  Level FlightAware Transoceanic
Tue 10:34:00 AM 27.9806 -66.3450 171° South 439 505 35,000  Level FlightAware Transoceanic
Tue 10:35:00 AM 27.8596 -66.3222 171° South 439 505 35,000  Level FlightAware Transoceanic
Tue 10:36:00 AM 27.7385 -66.2995 171° South 439 505 35,000  Level FlightAware Transoceanic
Tue 10:37:00 AM 27.6175 -66.2768 171° South 439 505 35,000  Level FlightAware Transoceanic
Tue 10:38:00 AM 27.4965 -66.2542 171° South 439 505 35,000  Level FlightAware Transoceanic
Tue 10:39:00 AM 27.3754 -66.2316 171° South 439 505 35,000  Level FlightAware Transoceanic
Tue 10:40:00 AM 27.2544 -66.2091 171° South 439 505 35,000  Level FlightAware Transoceanic
Tue 10:41:00 AM 27.1333 -66.1866 171° South 439 505 35,000  Level FlightAware Transoceanic
Tue 10:42:00 AM 27.0122 -66.1642 171° South 439 505 35,000  Level FlightAware Transoceanic
Tue 10:43:00 AM 26.8912 -66.1418 171° South 439 505 35,000  Level FlightAware Transoceanic
Tue 10:44:00 AM 26.7701 -66.1195 171° South 439 505 35,000  Level FlightAware Transoceanic
Tue 10:45:00 AM 26.6490 -66.0972 171° South 439 505 35,000  Level FlightAware Transoceanic
Tue 10:46:00 AM 26.5280 -66.0749 171° South 439 505 35,000  Level FlightAware Transoceanic
Tue 10:47:00 AM 26.4069 -66.0527 171° South 439 505 35,000  Level FlightAware Transoceanic
Tue 10:48:00 AM 26.2858 -66.0306 171° South 439 505 35,000  Level FlightAware Transoceanic
Tue 10:49:00 AM 26.1647 -66.0085 171° South 439 505 35,000  Level FlightAware Transoceanic
Tue 10:50:00 AM 26.0436 -65.9865 171° South 439 505 35,000  Level FlightAware Transoceanic
Tue 10:51:00 AM 25.9225 -65.9644 171° South 439 505 35,000  Level FlightAware Transoceanic
Tue 10:52:00 AM 25.8014 -65.9425 171° South 439 505 35,000  Level FlightAware Transoceanic
Tue 10:53:00 AM 25.6803 -65.9206 171° South 439 505 35,000  Level FlightAware Transoceanic
Tue 10:54:00 AM 25.5592 -65.8987 171° South 439 505 35,000  Level FlightAware Transoceanic
Tue 10:55:00 AM 25.4381 -65.8768 171° South 439 505 35,000  Level FlightAware Transoceanic
Tue 10:56:00 AM 25.3170 -65.8551 171° South 439 505 35,000  Level FlightAware Transoceanic
Tue 10:57:00 AM 25.1959 -65.8333 171° South 439 505 35,000  Level FlightAware Transoceanic
Tue 10:58:00 AM 25.0748 -65.8116 171° South 439 505 35,000  Level FlightAware Transoceanic
Tue 10:59:00 AM 24.9537 -65.7900 171° South 439 505 35,000  Level FlightAware Transoceanic
Tue 11:00:00 AM 24.8325 -65.7684 171° South 439 505 35,000  Level FlightAware Transoceanic
Tue 11:01:00 AM 24.7114 -65.7468 171° South 439 505 35,000  Level FlightAware Transoceanic
Tue 11:02:00 AM 24.5903 -65.7253 171° South 439 505 35,000  Level FlightAware Transoceanic
Tue 11:03:00 AM 24.4692 -65.7038 171° South 439 505 35,000  Level FlightAware Transoceanic
Tue 11:04:00 AM 24.3480 -65.6823 171° South 439 505 35,000  Level FlightAware Transoceanic
Tue 11:05:00 AM 24.2269 -65.6609 171° South 439 505 35,000  Level FlightAware Transoceanic
Tue 11:06:00 AM 24.1057 -65.6396 171° South 439 505 35,000  Level FlightAware Transoceanic
Tue 11:07:00 AM 23.9846 -65.6182 171° South 439 505 35,000  Level FlightAware Transoceanic
Tue 11:08:00 AM 23.8634 -65.5969 171° South 439 505 35,000  Level FlightAware Transoceanic
Tue 11:09:00 AM 23.7423 -65.5757 171° South 439 505 35,000  Level FlightAware Transoceanic
Tue 11:10:00 AM 23.6211 -65.5545 171° South 439 505 35,000  Level FlightAware Transoceanic
Tue 11:11:00 AM 23.5000 -65.5333 165° South 439 505 35,000  Level FlightAware Transoceanic
Tue 11:12:00 AM 23.3746 -65.4977 165° South 439 505 35,000  Level FlightAware Transoceanic
Tue 11:13:00 AM 23.2493 -65.4621 165° South 439 505 35,000  Level FlightAware Transoceanic
Tue 11:14:00 AM 23.1239 -65.4265 165° South 439 505 35,000 2,000 Level FlightAware Transoceanic
Tue 11:14:00 AM 23.5000 -65.5333 165° South 400 460 37,000  Climbing New York Oceanic (ODAPS)
Tue 11:15:00 AM 22.9985 -65.3911 165° South 439 505 35,000 -1,000 Descending FlightAware Transoceanic
Tue 11:16:00 AM 22.8731 -65.3557 165° South 439 505 35,000  Level FlightAware Transoceanic
Tue 11:17:00 AM 22.7477 -65.3203 165° South 439 505 35,000  Level FlightAware Transoceanic
Tue 11:18:00 AM 22.6222 -65.2850 165° South 439 505 35,000  Level FlightAware Transoceanic
Tue 11:19:00 AM 22.4968 -65.2498 165° South 439 505 35,000 1,237 Level FlightAware Transoceanic
Tue 11:19:37 AM 22.4333 -65.2667 166° South 490 564 37,000 2,000 Climbing San Juan Center
Tue 11:20:00 AM 22.3654 -65.2130 165° South 400 460 37,000  Level FlightAware Transoceanic
Tue 11:20:38 AM 22.3167 -65.2333 165° South 460 529 37,000  Level San Juan Center
Tue 11:21:00 AM 22.2519 -65.1813 166° South 400 460 37,000  Level FlightAware Transoceanic
Tue 11:21:38 AM 22.2000 -65.2000 165° South 450 518 37,000  Level San Juan Center
Tue 11:22:00 AM 22.1384 -65.1496 166° South 400 460 37,000  Level FlightAware Transoceanic
Tue 11:22:38 AM 22.0833 -65.1667 165° South 420 483 37,000  Level San Juan Center
Tue 11:23:00 AM 22.0249 -65.1180 166° South 400 460 37,000  Level FlightAware Transoceanic
Tue 11:23:39 AM 21.9833 -65.1333 163° South 450 518 37,000  Level San Juan Center
Tue 11:24:00 AM 21.9114 -65.0864 166° South 400 460 37,000  Level FlightAware Transoceanic
Tue 11:24:39 AM 21.8333 -65.1000 168° South 460 529 37,000  Level San Juan Center
Tue 11:25:00 AM 21.7979 -65.0548 166° South 400 460 37,000  Level FlightAware Transoceanic
Tue 11:30:37 AM 21.1880 -64.7050 168° South 447 514 37,000  Level FlightAware ADS-B
Tue 11:31:11 AM 21.1330 -64.6700 149° Southeast 447 514 37,000  Level FlightAware ADS-B
Tue 11:31:47 AM 21.0790 -64.6350 149° Southeast 447 514 37,000  Level FlightAware ADS-B
Tue 11:32:26 AM 21.0200 -64.5970 149° Southeast 447 514 37,000  Level FlightAware ADS-B
Tue 11:33:02 AM 20.9660 -64.5620 149° Southeast 447 514 37,000  Level FlightAware ADS-B
Tue 11:33:38 AM 20.9120 -64.5270 149° Southeast 447 514 37,000  Level FlightAware ADS-B
Tue 11:34:14 AM 20.8580 -64.4930 150° Southeast 447 514 37,000  Level FlightAware ADS-B
Tue 11:34:50 AM 20.8040 -64.4580 149° Southeast 447 514 37,000  Level FlightAware ADS-B
Tue 11:35:21 AM 20.6730 -64.3850 152° Southeast 450 518 37,000  Level FlightAware ADS-B
Tue 11:36:03 AM 20.6060 -64.3420 149° Southeast 451 519 37,000  Level FlightAware ADS-B
Tue 11:36:42 AM 20.5300 -64.2960 150° Southeast 452 520 37,000  Level FlightAware ADS-B
Tue 11:37:13 AM 20.4710 -64.2600 150° Southeast 453 521 37,000  Level FlightAware ADS-B
Tue 11:37:49 AM 20.4040 -64.2190 150° Southeast 454 522 37,000  Level FlightAware ADS-B
Tue 11:38:31 AM 20.3390 -64.1770 149° Southeast 454 522 37,000  Level FlightAware ADS-B
Tue 11:39:08 AM 20.2820 -64.1410 149° Southeast 454 522 37,000  Level FlightAware ADS-B
Tue 11:39:44 AM 20.2270 -64.1060 149° Southeast 454 522 37,000  Level FlightAware ADS-B
Tue 11:40:20 AM 20.1720 -64.0710 149° Southeast 454 522 37,000  Level FlightAware ADS-B
Tue 11:41:03 AM 20.0520 -64.0020 152° Southeast 452 520 37,000  Level FlightAware ADS-B
Tue 11:41:40 AM 19.9950 -63.9660 149° Southeast 452 520 37,000  Level FlightAware ADS-B
Tue 11:42:14 AM 19.9440 -63.9330 149° Southeast 452 520 37,000  Level FlightAware ADS-B
Tue 11:42:51 AM 19.8560 -63.8820 151° Southeast 452 520 37,000  Level FlightAware ADS-B
Tue 11:43:32 AM 19.7820 -63.8370 150° Southeast 452 520 37,000  Level FlightAware ADS-B
Tue 11:44:09 AM 19.7140 -63.7950 150° Southeast 451 519 37,000  Level FlightAware ADS-B
Tue 11:44:43 AM 19.6510 -63.7580 151° Southeast 451 519 37,000  Level FlightAware ADS-B
Tue 11:45:19 AM 19.5870 -63.7180 150° Southeast 451 519 37,000  Level FlightAware ADS-B
Tue 11:46:00 AM 19.5210 -63.6770 150° Southeast 451 519 37,000  Level FlightAware ADS-B
Tue 11:46:37 AM 19.4650 -63.6410 149° Southeast 451 519 37,000  Level FlightAware ADS-B
Tue 11:47:14 AM 19.4090 -63.6050 149° Southeast 451 519 37,000  Level FlightAware ADS-B
Tue 11:47:53 AM 19.3500 -63.5680 149° Southeast 451 519 37,000  Level FlightAware ADS-B
Tue 11:48:30 AM 19.2930 -63.5320 149° Southeast 451 519 37,000  Level FlightAware ADS-B
Tue 11:49:06 AM 19.2390 -63.4970 149° Southeast 451 519 37,000  Level FlightAware ADS-B
Tue 11:49:42 AM 19.1840 -63.4620 149° Southeast 451 519 37,000  Level FlightAware ADS-B
Tue 11:50:18 AM 19.1290 -63.4270 149° Southeast 451 519 37,000  Level FlightAware ADS-B
Tue 11:50:54 AM 19.0740 -63.3930 150° Southeast 451 519 37,000  Level FlightAware ADS-B
Tue 11:51:30 AM 19.0200 -63.3580 149° Southeast 451 519 37,000  Level FlightAware ADS-B
Tue 11:52:18 AM 18.9470 -63.3110 149° Southeast 451 519 37,000  Level FlightAware ADS-B
Tue 11:52:54 AM 18.8920 -63.2770 150° Southeast 451 519 37,000  Level FlightAware ADS-B
Tue 11:53:30 AM 18.8370 -63.2420 149° Southeast 451 519 37,000  Level FlightAware ADS-B
Tue 11:54:04 AM 18.7860 -63.2090 149° Southeast 451 519 37,000  Level FlightAware ADS-B
Tue 11:54:41 AM 18.7290 -63.1730 149° Southeast 451 519 37,000  Level FlightAware ADS-B
Tue 11:55:17 AM 18.6750 -63.1390 149° Southeast 451 519 37,000  Level FlightAware ADS-B
Tue 11:55:48 AM 18.4500 -63.0333 149° Southeast 440 506 37,000  Level San Juan Center
Tue 11:56:48 AM 18.3500 -62.9667 148° Southeast 440 506 37,000  Level San Juan Center
Tue 11:57:49 AM 18.2333 -62.9000 152° Southeast 450 518 37,000  Level San Juan Center
Tue 11:58:49 AM 18.1167 -62.8333 151° Southeast 450 518 37,000  Level San Juan Center
Tue 11:59:50 AM 18.0167 -62.7667 148° Southeast 450 518 37,000  Level San Juan Center
Tue 12:00:50 PM 17.9000 -62.7000 151° Southeast 440 506 37,000  Level San Juan Center
Tue 12:02:50 PM 17.7000 -62.5833 151° Southeast 450 518 37,000  Level San Juan Center
Tue 12:03:51 PM 17.6000 -62.5000 142° Southeast 460 529 37,000  Level San Juan Center
Tue 12:09:32 PM 17.2100 -61.9210 142° Southeast 449 517 37,000  Level FlightAware ADS-B
Tue 12:10:22 PM 17.1490 -61.8360 127° Southeast 450 518 37,000  Level FlightAware ADS-B
Tue 12:10:59 PM 17.1100 -61.7810 127° Southeast 450 518 37,000  Level FlightAware ADS-B
Tue 12:11:13 PM 17.0710 -61.7730 169° South 450 518 37,000  Level FlightAware ADS-B
Tue 12:11:46 PM 17.0150 -61.7310 144° Southeast 450 518 37,000  Level FlightAware ADS-B
Tue 12:12:21 PM 16.9470 -61.6960 154° Southeast 448 516 37,000  Level FlightAware ADS-B
Tue 12:12:57 PM 16.8830 -61.6590 151° Southeast 447 514 37,000  Level FlightAware ADS-B
Tue 12:13:30 PM 16.8160 -61.6200 151° Southeast 445 512 37,000  Level FlightAware ADS-B
Tue 12:14:12 PM 16.7390 -61.5750 151° Southeast 446 513 37,000  Level FlightAware ADS-B
Tue 12:14:52 PM 16.6640 -61.5310 151° Southeast 448 516 37,000  Level FlightAware ADS-B
Tue 12:15:24 PM 16.6030 -61.4950 151° Southeast 448 516 37,000  Level FlightAware ADS-B
Tue 12:16:00 PM 16.5390 -61.4590 152° Southeast 448 516 37,000  Level FlightAware ADS-B
Tue 12:16:37 PM 16.4770 -61.4220 150° Southeast 448 516 37,000  Level FlightAware ADS-B
Tue 12:17:12 PM 16.4090 -61.3830 151° Southeast 448 516 37,000  Level FlightAware ADS-B
Tue 12:17:49 PM 16.3370 -61.3410 151° Southeast 448 516 37,000  Level FlightAware ADS-B
Tue 12:18:16 PM 16.3040 -61.3220 151° Southeast 448 516 37,000  Level FlightAware ADS-B
Tue 12:18:54 PM 16.2360 -61.2830 151° Southeast 447 514 37,000  Level FlightAware ADS-B
Tue 12:19:31 PM 16.1550 -61.2350 150° Southeast 447 514 37,000  Level FlightAware ADS-B
Tue 12:20:28 PM 16.0770 -61.1910 152° Southeast 448 516 37,000  Level FlightAware ADS-B
Tue 12:20:59 PM 15.9940 -61.1420 150° Southeast 446 513 37,000  Level FlightAware ADS-B
Tue 12:21:41 PM 15.9260 -61.1030 151° Southeast 446 513 37,000  Level FlightAware ADS-B
Tue 12:22:24 PM 15.8520 -61.0610 151° Southeast 446 513 37,000  Level FlightAware ADS-B
Tue 12:22:48 PM 15.7970 -61.0290 151° Southeast 446 513 37,000  Level FlightAware ADS-B
Tue 12:23:37 PM 15.7120 -60.9800 151° Southeast 446 513 37,000  Level FlightAware ADS-B
Tue 12:24:19 PM 15.6450 -60.9420 151° Southeast 447 514 37,000  Level FlightAware ADS-B
Tue 12:24:59 PM 15.5580 -60.8920 151° Southeast 447 514 37,000  Level FlightAware ADS-B
Tue 12:25:35 PM 15.4950 -60.8550 150° Southeast 449 517 37,000  Level FlightAware ADS-B
Tue 12:26:06 PM 15.4470 -60.8270 151° Southeast 448 516 37,000  Level FlightAware ADS-B
Tue 12:26:44 PM 15.3800 -60.7920 153° Southeast 448 516 37,000 -1,000 Level FlightAware ADS-B
Tue 12:27:18 PM 15.3100 -60.7740 166° South 449 517 35,800 -2,522 Descending FlightAware ADS-B
Tue 12:27:53 PM 15.2390 -60.7560 166° South 457 526 34,100 -3,081 Descending FlightAware ADS-B
Tue 12:28:32 PM 15.1470 -60.7300 165° South 464 534 32,000 -3,086 Descending FlightAware ADS-B
Tue 12:29:03 PM 15.0910 -60.7150 165° South 470 541 30,500 -3,486 Descending FlightAware ADS-B
Tue 12:29:46 PM 14.9970 -60.6890 165° South 484 557 27,700 -3,818 Descending FlightAware ADS-B
Tue 12:30:20 PM 14.9120 -60.6670 166° South 488 562 25,600 -2,250 Descending FlightAware ADS-B
Tue 12:30:58 PM 14.8350 -60.6470 166° South 487 560 25,000 -514 Descending FlightAware ADS-B
Tue 12:31:30 PM 14.7610 -60.6280 166° South 487 560 25,000  Level FlightAware ADS-B
Tue 12:32:02 PM 14.7030 -60.6130 166° South 485 558 25,000  Level FlightAware ADS-B
Tue 12:32:51 PM 14.5830 -60.5830 166° South 484 557 25,000  Level FlightAware ADS-B
Tue 12:33:30 PM 14.5030 -60.5620 166° South 483 556 25,000  Level FlightAware ADS-B
Tue 12:34:06 PM 14.4250 -60.5430 167° South 484 557 25,000  Level FlightAware ADS-B
Tue 12:34:38 PM 14.3500 -60.5220 165° South 484 557 25,000  Level FlightAware ADS-B
Tue 12:35:13 PM 14.2780 -60.4950 160° South 481 554 25,000  Level FlightAware ADS-B
Tue 12:35:48 PM 14.2050 -60.4660 159° South 482 555 25,000  Level FlightAware ADS-B
Tue 12:36:24 PM 14.1290 -60.4360 159° South 482 555 25,000 -86 Level FlightAware ADS-B
Tue 12:36:58 PM 14.0590 -60.4090 159° South 483 556 24,900 -1,250 Descending FlightAware ADS-B
Tue 12:37:36 PM 13.9760 -60.3760 159° South 474 545 23,500 -2,348 Descending FlightAware ADS-B
Tue 12:38:07 PM 13.9150 -60.3530 160° South 464 534 22,200 -2,500 Descending FlightAware ADS-B
Tue 12:38:48 PM 13.8330 -60.3210 159° South 452 520 20,500 -2,667 Descending FlightAware ADS-B
Tue 12:39:19 PM 13.7830 -60.3020 160° South 432 497 19,000 -3,940 Descending FlightAware ADS-B
Tue 12:39:55 PM 13.7100 -60.2730 159° South 422 486 16,100 -2,968 Descending FlightAware ADS-B
Tue 12:40:54 PM 13.6270 -60.2310 154° Southeast 414 476 14,300 -1,125 Descending FlightAware ADS-B
Tue 12:41:31 PM 13.5740 -60.2020 152° Southeast 414 476 14,300  Level FlightAware ADS-B
Tue 12:42:05 PM 13.5250 -60.1750 152° Southeast 414 476 14,300 -1,566 Level FlightAware ADS-B
Tue 12:44:00 PM 13.3943 -59.9764 124° Southeast  Level Estimated
Tue 12:45:00 PM 13.3261 -59.8729 124° Southeast  Level Estimated
Tue 12:46:00 PM 13.2578 -59.7695 124° Southeast  Level Estimated
Tue 12:47:00 PM 13.1895 -59.6661 124° Southeast  Level Estimated
Tue 12:48:00 PM 13.1211 -59.5627 124° Southeast  Level Estimated
Tue 12:48:44 PM 13.0340 -59.8810 150° Southeast 269 310 3,000  Level FlightAware ADS-B
Tue 12:49:02 PM 13.0150 -59.8670 144° Southeast 266 306 3,000  Level FlightAware ADS-B
Tue 12:49:20 PM 13.0000 -59.8500 132° Southeast 263 303 3,000  Level FlightAware ADS-B
Tue 12:49:31 PM 12.9940 -59.8360 114° Southeast 259 298 3,000  Level FlightAware ADS-B
Tue 12:50:00 PM 12.9980 -59.8030 83° East 255 293 3,000  Level FlightAware ADS-B
Tue 12:50:24 PM 13.0050 -59.7740 76° East 259 298 3,000  Level FlightAware ADS-B
Tue 12:50:46 PM 13.0110 -59.7500 76° East 256 295 3,000  Level FlightAware ADS-B
Tue 12:51:02 PM 13.0160 -59.7310 75° East 251 289 3,000  Level FlightAware ADS-B
Tue 12:51:26 PM 13.0230 -59.7040 75° East 231 266 3,000  Level FlightAware ADS-B
Tue 12:51:50 PM 13.0290 -59.6790 76° East 224 258 3,000  Level FlightAware ADS-B
Tue 12:52:02 PM 13.0320 -59.6660 77° East 227 261 3,000 -400 Level FlightAware ADS-B
Tue 12:52:20 PM 13.0360 -59.6500 76° East 219 252 2,800 -875 Descending FlightAware ADS-B
Tue 12:52:50 PM 13.0420 -59.6220 78° East 183 211 2,300 -1,000 Descending FlightAware ADS-B
Tue 12:53:02 PM 13.0460 -59.6100 71° East 180 207 2,100 -1,000 Descending FlightAware ADS-B
Tue 12:53:26 PM 13.0500 -59.5930 76° East 159 183 1,700 -808 Descending FlightAware ADS-B
Tue 12:53:54 PM 13.0540 -59.5750 77° East 139 160 1,400 -652 Descending FlightAware ADS-B
Tue 12:54:12 PM 13.0560 -59.5640 79° East 134 154 1,200 -240 Descending FlightAware ADS-B
Tue 12:54:44 PM 13.0600 -59.5500 74° East 134 154 1,200 -643 Level FlightAware ADS-B
Tue 12:55:08 PM 13.0650 -59.5330 73° East 136 157 600 -692 Descending FlightAware ADS-B
Tue 12:55:36 PM 13.0690 -59.5190 74° East 136 157 600 -375 Level FlightAware ADS-B
Tue 12:56:12 PM 13.0680 -59.5180 136° Southeast 136 157 200 -667 Descending FlightAware ADS-B
Tue 12:58:00 PM 13.0746 -59.4925 90° East  Level Estimated
Tue 12:59:00 PM 13.0746 -59.4925 90° East  Level Estimated
Tue 01:00:00 PM 13.0746 -59.4925 90° East  Level Estimated
Tue 01:01:00 PM 13.0746 -59.4925 90° East  Level Estimated
Tue 01:02:00 PM 13.0746 -59.4925 90° East  Level Estimated
Tue 01:03:00 PM 13.0746 -59.4925 90° East  Level Estimated
Tue 01:04:00 PM 13.0746 -59.4925 90° East  Level Estimated
Tue 01:05:00 PM 13.0746 -59.4925 90° East  Level Estimated

Login

Don't have an account? Register now (free) for customized features, flight alerts, and more!